createdAt,value
2022-12-23T00:01:20.306Z,97864.27
2022-12-23T00:06:22.111Z,97872.55
2022-12-23T00:11:24.212Z,97867.58
2022-12-23T00:16:26.025Z,97872.20
2022-12-23T00:21:27.741Z,97871.54
2022-12-23T00:26:29.569Z,97871.57
2022-12-23T00:31:31.855Z,97875.75
2022-12-23T00:36:33.601Z,97872.66
2022-12-23T00:41:54.661Z,97873.11
2022-12-23T00:46:56.391Z,97856.38
2022-12-23T00:51:58.670Z,97864.54
2022-12-23T00:57:00.976Z,97864.35
2022-12-23T01:02:21.729Z,97871.85
2022-12-23T01:07:24.114Z,97866.32
2022-12-23T01:12:25.887Z,97866.36
2022-12-23T01:17:27.526Z,97868.26
2022-12-23T01:22:29.207Z,97869.23
2022-12-23T01:27:31.037Z,97868.27
2022-12-23T01:32:32.666Z,97865.59
2022-12-23T01:37:34.607Z,97865.00
2022-12-23T01:42:45.371Z,97875.66
2022-12-23T01:47:57.161Z,97871.70
2022-12-23T01:53:08.732Z,97876.88
2022-12-23T01:58:16.847Z,97884.31
2022-12-23T02:03:37.706Z,97884.19
2022-12-23T02:08:58.496Z,97886.63
2022-12-23T02:14:38.521Z,97886.81
2022-12-23T02:19:54.315Z,97889.58
2022-12-23T02:25:13.136Z,97896.64
2022-12-23T02:30:45.906Z,97893.23
2022-12-23T02:36:06.762Z,97895.64
2022-12-23T02:41:17.437Z,97884.84
2022-12-23T02:46:38.460Z,97880.87
2022-12-23T02:51:49.431Z,97880.61
2022-12-23T02:56:54.011Z,97879.42
2022-12-23T03:01:57.255Z,97878.86
2022-12-23T03:07:06.976Z,97881.86
2022-12-23T03:12:27.578Z,97886.62
2022-12-23T03:17:38.633Z,97878.01
2022-12-23T03:22:53.385Z,97870.54
2022-12-23T03:28:11.213Z,97874.65
2022-12-23T03:33:22.304Z,97872.00
2022-12-23T03:38:25.801Z,97872.04
2022-12-23T03:43:33.373Z,97871.90
2022-12-23T03:48:46.543Z,97867.61
2022-12-23T03:53:54.923Z,97870.56
2022-12-23T03:59:08.449Z,97867.47
2022-12-23T04:04:26.608Z,97858.80
2022-12-23T04:09:28.782Z,97852.78
2022-12-23T04:14:33.557Z,97846.56
2022-12-23T04:19:35.220Z,97845.49
2022-12-23T04:24:36.864Z,97847.54
2022-12-23T04:29:38.704Z,97841.39
2022-12-23T04:34:40.365Z,97836.87
2022-12-23T04:39:42.013Z,97841.77
2022-12-23T04:44:43.660Z,97842.36
2022-12-23T04:49:45.356Z,97846.29
2022-12-23T04:54:47.078Z,97836.38
2022-12-23T04:59:48.699Z,97838.80
2022-12-23T05:04:50.360Z,97836.33
2022-12-23T05:09:52.008Z,97831.33
2022-12-23T05:14:53.647Z,97829.42
2022-12-23T05:19:55.309Z,97821.92
2022-12-23T05:24:56.964Z,97820.55
2022-12-23T05:29:58.630Z,97817.23
2022-12-23T05:35:00.296Z,97810.47
2022-12-23T05:40:02.376Z,97804.29
2022-12-23T05:45:04.656Z,97803.73
2022-12-23T05:50:07.569Z,97805.08
2022-12-23T05:55:09.392Z,97801.05
2022-12-23T06:00:11.441Z,97800.77
2022-12-23T06:05:16.199Z,97794.55
2022-12-23T06:10:18.376Z,97792.34
2022-12-23T06:15:20.112Z,97794.09
2022-12-23T06:20:21.818Z,97800.09
2022-12-23T06:25:23.469Z,97803.09
2022-12-23T06:30:25.118Z,97798.41
2022-12-23T06:35:26.770Z,97801.11
2022-12-23T06:40:29.388Z,97810.73
2022-12-23T06:45:31.211Z,97810.86
2022-12-23T06:50:33.254Z,97816.76
2022-12-23T06:55:35.169Z,97823.66
2022-12-23T07:00:36.859Z,97819.33
2022-12-23T07:05:38.583Z,97816.14
2022-12-23T07:10:40.345Z,97821.54
2022-12-23T07:15:42.366Z,97823.97
2022-12-23T07:20:44.455Z,97826.77
2022-12-23T07:25:46.136Z,97823.77
2022-12-23T07:30:47.994Z,97831.52
2022-12-23T07:35:49.682Z,97838.40
2022-12-23T07:40:51.320Z,97837.04
2022-12-23T07:45:59.615Z,97833.31
2022-12-23T07:51:02.900Z,97829.20
2022-12-23T07:56:05.069Z,97818.00
2022-12-23T08:01:09.941Z,97813.80
2022-12-23T08:06:14.230Z,97818.48
2022-12-23T08:11:16.304Z,97811.92
2022-12-23T08:16:18.336Z,97800.73
2022-12-23T08:21:20.426Z,97798.20
2022-12-23T08:26:24.629Z,97784.58
2022-12-23T08:31:30.193Z,97786.73
2022-12-23T08:36:34.876Z,97789.48
2022-12-23T08:41:46.422Z,97787.81
2022-12-23T08:46:48.431Z,97795.47
2022-12-23T08:51:50.241Z,97786.17
2022-12-23T08:56:51.989Z,97773.55
2022-12-23T09:01:53.885Z,97774.98
2022-12-23T09:06:55.939Z,97775.41
2022-12-23T09:11:57.683Z,97773.35
2022-12-23T09:16:59.393Z,97763.59
2022-12-23T09:22:01.056Z,97757.91
2022-12-23T09:27:02.783Z,97753.27
2022-12-23T09:32:04.599Z,97744.91
2022-12-23T09:37:06.444Z,97739.27
2022-12-23T09:42:26.181Z,97736.69
2022-12-23T09:47:31.422Z,97730.53
2022-12-23T09:52:51.505Z,97721.80
2022-12-23T09:58:03.146Z,97713.70
2022-12-23T10:03:54.412Z,97708.76
2022-12-23T10:09:03.778Z,97705.14
2022-12-23T10:14:19.584Z,97708.92
2022-12-23T10:19:33.395Z,97713.33
2022-12-23T10:24:40.881Z,97714.18
2022-12-23T10:29:42.634Z,97716.74
2022-12-23T10:35:06.211Z,97711.41
2022-12-23T10:40:21.432Z,97714.30
2022-12-23T10:45:43.488Z,97714.17
2022-12-23T10:51:32.668Z,97712.77
2022-12-23T10:56:34.455Z,97718.91
2022-12-23T11:01:36.400Z,97717.44
2022-12-23T11:06:41.376Z,97715.92
2022-12-23T11:12:15.948Z,97715.50
2022-12-23T11:17:28.151Z,97715.92
2022-12-23T11:22:29.760Z,97708.78
2022-12-23T11:27:31.406Z,97711.88
2022-12-23T11:32:33.344Z,97713.94
2022-12-23T11:37:42.982Z,97710.27
2022-12-23T11:42:46.146Z,97707.79
2022-12-23T11:47:50.840Z,97705.81
2022-12-23T11:52:55.850Z,97708.23
2022-12-23T11:57:57.555Z,97707.35
2022-12-23T12:03:02.947Z,97709.74
2022-12-23T12:08:10.235Z,97711.00
2022-12-23T12:13:39.676Z,97706.39
2022-12-23T12:18:45.610Z,97711.49
2022-12-23T12:24:17.039Z,97714.94
2022-12-23T12:29:42.268Z,97711.80
2022-12-23T12:35:00.330Z,97713.71
2022-12-23T12:40:24.801Z,97712.66
2022-12-23T12:45:39.882Z,97709.81
2022-12-23T12:50:56.239Z,97721.85
2022-12-23T12:56:07.866Z,97719.00
2022-12-23T13:01:28.967Z,97723.52
2022-12-23T13:07:01.219Z,97729.33
2022-12-23T13:12:16.502Z,97731.59
2022-12-23T13:17:42.611Z,97737.84
2022-12-23T13:22:48.437Z,97739.83
2022-12-23T13:27:56.412Z,97742.13
2022-12-23T13:33:20.682Z,97739.16
2022-12-23T13:38:57.508Z,97744.55
2022-12-23T13:44:07.464Z,97756.41
2022-12-23T13:49:24.646Z,97755.77
2022-12-23T13:54:49.751Z,97753.44
2022-12-23T14:00:17.620Z,97756.09
2022-12-23T14:05:41.066Z,97755.23
2022-12-23T14:10:58.601Z,97761.20
2022-12-23T14:16:19.092Z,97766.35
2022-12-23T14:21:46.917Z,97772.31
2022-12-23T14:27:16.065Z,97774.64
2022-12-23T14:32:24.746Z,97772.92
2022-12-23T14:37:27.398Z,97768.60
2022-12-23T14:42:41.529Z,97767.20
2022-12-23T14:47:46.480Z,97772.88
2022-12-23T14:52:58.593Z,97776.70
2022-12-23T14:58:13.734Z,97780.11
2022-12-23T15:03:17.614Z,97776.17
2022-12-23T15:08:31.069Z,97775.20
2022-12-23T15:13:33.487Z,97778.57
2022-12-23T15:18:35.154Z,97785.18
2022-12-23T15:23:36.803Z,97776.85
2022-12-23T15:28:40.880Z,97782.66
2022-12-23T15:34:04.099Z,97788.80
2022-12-23T15:39:17.355Z,97789.03
2022-12-23T15:44:22.192Z,97787.80
2022-12-23T15:49:23.850Z,97786.48
2022-12-23T15:54:36.817Z,97782.52
2022-12-23T15:59:39.390Z,97781.52
2022-12-23T16:04:41.256Z,97778.91
2022-12-23T16:09:43.264Z,97785.88
2022-12-23T16:14:54.191Z,97789.15
2022-12-23T16:20:18.436Z,97789.76
2022-12-23T16:25:33.439Z,97784.42
2022-12-23T16:30:38.302Z,97777.66
2022-12-23T16:35:42.247Z,97763.72
2022-12-23T16:40:47.680Z,97756.23
2022-12-23T16:45:54.153Z,97764.23
2022-12-23T16:50:56.591Z,97763.14
2022-12-23T16:56:00.864Z,97759.51
2022-12-23T17:01:03.927Z,97758.98
2022-12-23T17:06:05.682Z,97761.52
2022-12-23T17:11:19.750Z,97767.50
2022-12-23T17:16:24.401Z,97770.25
2022-12-23T17:21:31.957Z,97770.65
2022-12-23T17:26:33.582Z,97769.89
2022-12-23T17:31:35.351Z,97776.93
2022-12-23T17:36:41.890Z,97778.60
2022-12-23T17:41:47.149Z,97775.02
2022-12-23T17:46:48.780Z,97776.30
2022-12-23T17:51:50.520Z,97775.04
2022-12-23T17:56:52.759Z,97784.86
2022-12-23T18:01:55.087Z,97789.66
2022-12-23T18:06:56.827Z,97788.85
2022-12-23T18:11:58.711Z,97790.75
2022-12-23T18:17:00.555Z,97786.81
2022-12-23T18:22:02.343Z,97796.45
2022-12-23T18:27:12.961Z,97806.15
2022-12-23T18:32:27.126Z,97812.04
2022-12-23T18:37:28.944Z,97801.05
2022-12-23T18:42:30.985Z,97799.84
2022-12-23T18:47:32.679Z,97793.59
2022-12-23T18:52:34.360Z,97789.70
2022-12-23T18:57:36.155Z,97787.23
2022-12-23T19:02:39.183Z,97783.33
2022-12-23T19:07:40.972Z,97785.48
2022-12-23T19:12:43.557Z,97788.02
2022-12-23T19:17:45.468Z,97792.02
2022-12-23T19:22:48.786Z,97787.38
2022-12-23T19:27:51.373Z,97788.80
2022-12-23T19:32:53.979Z,97782.22
2022-12-23T19:37:55.822Z,97788.65
2022-12-23T19:42:57.687Z,97784.41
2022-12-23T19:47:59.352Z,97786.05
2022-12-23T19:53:02.477Z,97784.49
2022-12-23T19:58:04.137Z,97787.70
2022-12-23T20:03:06.047Z,97778.89
2022-12-23T20:08:07.902Z,97762.91
2022-12-23T20:13:10.204Z,97748.17
2022-12-23T20:18:11.850Z,97742.10
2022-12-23T20:23:13.495Z,97738.63
2022-12-23T20:28:15.371Z,97730.15
2022-12-23T20:33:17.454Z,97733.81
2022-12-23T20:38:20.488Z,97735.31
2022-12-23T20:43:22.189Z,97731.45
2022-12-23T20:48:28.117Z,97727.34
2022-12-23T20:53:35.114Z,97726.48
2022-12-23T20:58:56.017Z,97714.41
2022-12-23T21:04:00.735Z,97711.15
2022-12-23T21:09:05.451Z,97711.74
2022-12-23T21:14:07.920Z,97716.80
2022-12-23T21:19:25.577Z,97714.15
2022-12-23T21:24:29.836Z,97713.95
2022-12-23T21:29:31.608Z,97717.23
2022-12-23T21:34:33.292Z,97708.84
2022-12-23T21:39:36.330Z,97708.40
2022-12-23T21:44:38.010Z,97704.35
2022-12-23T21:49:42.330Z,97700.68
2022-12-23T21:54:43.989Z,97695.64
2022-12-23T21:59:45.661Z,97694.23
2022-12-23T22:04:47.519Z,97692.94
2022-12-23T22:09:51.348Z,97693.27
2022-12-23T22:14:57.525Z,97689.17
2022-12-23T22:19:59.342Z,97684.48
2022-12-23T22:25:01.015Z,97678.92
2022-12-23T22:30:02.727Z,97674.41
2022-12-23T22:35:05.005Z,97665.98
2022-12-23T22:40:07.441Z,97666.31
2022-12-23T22:45:11.208Z,97661.41
2022-12-23T22:50:13.091Z,97664.62
2022-12-23T22:55:14.823Z,97667.05
2022-12-23T23:00:16.951Z,97676.67
2022-12-23T23:05:18.649Z,97682.97
2022-12-23T23:10:20.458Z,97675.33
2022-12-23T23:15:22.114Z,97659.60
2022-12-23T23:20:23.749Z,97656.96
2022-12-23T23:25:25.436Z,97646.83
2022-12-23T23:30:27.428Z,97639.83
2022-12-23T23:35:29.118Z,97630.00
2022-12-23T23:40:31.604Z,97619.23
2022-12-23T23:45:33.552Z,97607.33
2022-12-23T23:50:35.564Z,97599.65
2022-12-23T23:55:37.633Z,97597.34
